Webcam

2021/05/13 14:20 EBBR 131420Z 23008KT 200V260 9999 SCT021 13/09 Q1007 NOSIG

Webcam

--- Refresh now ---